Time,TemperatureF,DewpointF,PressureIn,WindDirection,WindDirectionDegrees,WindSpeedMPH,WindSpeedGustMPH,Humidity,HourlyPrecipIn,Conditions,Clouds,dailyrainin,SoftwareType,DateUTC
2013-02-08 00:11:00,45.1,24.0,30.05,NNE,17,0.0,0.0,43,0.00,,,0.00,weatherlink.com 1.10,2013-02-08 06:11:00,
2013-02-08 00:26:00,44.9,23.0,30.05,NNE,17,0.0,0.0,43,0.00,,,0.00,weatherlink.com 1.10,2013-02-08 06:26:00,
2013-02-08 00:41:00,44.7,24.0,30.05,NNE,17,0.0,1.0,44,0.00,,,0.00,weatherlink.com 1.10,2013-02-08 06:41:00,
2013-02-08 00:56:00,45.1,24.0,30.05,NNE,17,0.0,1.0,43,0.00,,,0.00,weatherlink.com 1.10,2013-02-08 06:56:00,
2013-02-08 01:11:00,44.6,24.0,30.05,NNE,17,1.0,1.0,44,0.00,,,0.00,weatherlink.com 1.10,2013-02-08 07:11:00,
2013-02-08 01:26:00,45.4,24.0,30.05,NNE,17,0.0,2.0,43,0.00,,,0.00,weatherlink.com 1.10,2013-02-08 07:26:00,
2013-02-08 01:41:00,43.8,24.0,30.06,NNE,17,0.0,1.0,45,0.00,,,0.00,weatherlink.com 1.10,2013-02-08 07:41:00,
2013-02-08 01:56:00,43.8,24.0,30.05,NNE,17,0.0,2.0,45,0.00,,,0.00,weatherlink.com 1.10,2013-02-08 07:56:00,
2013-02-08 02:11:00,43.1,23.0,30.05,NNE,17,0.0,0.0,46,0.00,,,0.00,weatherlink.com 1.10,2013-02-08 08:11:00,
2013-02-08 02:26:00,42.5,23.0,30.05,NNE,17,0.0,0.0,47,0.00,,,0.00,weatherlink.com 1.10,2013-02-08 08:26:00,
2013-02-08 02:42:00,42.0,23.0,30.06,NNE,17,0.0,1.0,48,0.00,,,0.00,weatherlink.com 1.10,2013-02-08 08:42:00,
2013-02-08 02:56:00,41.6,24.0,30.06,NNE,17,0.0,0.0,49,0.00,,,0.00,weatherlink.com 1.10,2013-02-08 08:56:00,
2013-02-08 03:12:00,41.6,24.0,30.06,NNE,17,0.0,1.0,50,0.00,,,0.00,weatherlink.com 1.10,2013-02-08 09:12:00,
2013-02-08 03:26:00,41.0,23.0,30.06,NNE,17,0.0,0.0,50,0.00,,,0.00,weatherlink.com 1.10,2013-02-08 09:26:00,
2013-02-08 03:41:00,40.7,24.0,30.06,NNE,17,0.0,0.0,51,0.00,,,0.00,weatherlink.com 1.10,2013-02-08 09:41:00,
2013-02-08 03:57:00,41.0,24.0,30.06,NNE,17,0.0,0.0,52,0.00,,,0.00,weatherlink.com 1.10,2013-02-08 09:57:00,
2013-02-08 04:11:00,41.2,24.0,30.06,NNE,17,0.0,0.0,50,0.00,,,0.00,weatherlink.com 1.10,2013-02-08 10:11:00,
2013-02-08 04:27:00,40.1,24.0,30.06,NNE,17,0.0,0.0,52,0.00,,,0.00,weatherlink.com 1.10,2013-02-08 10:27:00,
2013-02-08 04:41:00,40.0,24.0,30.07,NNE,17,0.0,0.0,53,0.00,,,0.00,weatherlink.com 1.10,2013-02-08 10:41:00,
2013-02-08 04:57:00,39.3,24.0,30.07,NNE,17,0.0,0.0,55,0.00,,,0.00,weatherlink.com 1.10,2013-02-08 10:57:00,
2013-02-08 05:12:00,39.5,24.0,30.06,NNE,17,0.0,1.0,55,0.00,,,0.00,weatherlink.com 1.10,2013-02-08 11:12:00,
2013-02-08 05:27:00,39.2,24.0,30.07,NNE,17,0.0,0.0,55,0.00,,,0.00,weatherlink.com 1.10,2013-02-08 11:27:00,
2013-02-08 05:42:00,37.8,24.0,30.07,NNE,17,0.0,0.0,58,0.00,,,0.00,weatherlink.com 1.10,2013-02-08 11:42:00,
2013-02-08 05:59:00,38.7,24.0,30.07,NNE,17,0.0,0.0,57,0.00,,,0.00,weatherlink.com 1.10,2013-02-08 11:59:00,
2013-02-08 06:14:00,38.4,25.0,30.07,NNE,17,0.0,0.0,58,0.00,,,0.00,weatherlink.com 1.10,2013-02-08 12:14:00,
2013-02-08 06:27:00,40.5,27.0,30.07,NNE,17,0.0,4.0,58,0.00,,,0.00,weatherlink.com 1.10,2013-02-08 12:27:00,
2013-02-08 06:42:00,39.0,26.0,30.07,NNE,17,0.0,0.0,60,0.00,,,0.00,weatherlink.com 1.10,2013-02-08 12:42:00,
2013-02-08 06:57:00,40.8,32.0,30.07,NNE,17,1.0,3.0,70,0.00,,,0.00,weatherlink.com 1.10,2013-02-08 12:57:00,
2013-02-08 07:12:00,36.8,26.0,30.08,NNE,17,0.0,2.0,65,0.00,,,0.00,weatherlink.com 1.10,2013-02-08 13:12:00,
2013-02-08 07:27:00,35.8,26.0,30.08,NNE,17,0.0,0.0,67,0.00,,,0.00,weatherlink.com 1.10,2013-02-08 13:27:00,
2013-02-08 07:42:00,36.1,26.0,30.08,NNE,17,0.0,0.0,67,0.00,,,0.00,weatherlink.com 1.10,2013-02-08 13:42:00,
2013-02-08 07:57:00,36.6,26.0,30.08,NNE,17,0.0,1.0,66,0.00,,,0.00,weatherlink.com 1.10,2013-02-08 13:57:00,
2013-02-08 08:12:00,36.8,27.0,30.09,NNE,17,0.0,1.0,67,0.00,,,0.00,weatherlink.com 1.10,2013-02-08 14:12:00,
2013-02-08 08:27:00,38.3,29.0,30.09,NNE,17,0.0,2.0,68,0.00,,,0.00,weatherlink.com 1.10,2013-02-08 14:27:00,
2013-02-08 08:42:00,40.0,29.0,30.09,NNE,17,0.0,1.0,65,0.00,,,0.00,weatherlink.com 1.10,2013-02-08 14:42:00,
2013-02-08 08:57:00,41.3,29.0,30.09,NNE,17,0.0,1.0,63,0.00,,,0.00,weatherlink.com 1.10,2013-02-08 14:57:00,
2013-02-08 09:12:00,42.6,30.0,30.09,NNE,17,0.0,2.0,61,0.00,,,0.00,weatherlink.com 1.10,2013-02-08 15:12:00,
2013-02-08 09:27:00,44.5,32.0,30.10,NNE,17,1.0,2.0,62,0.00,,,0.00,weatherlink.com 1.10,2013-02-08 15:27:00,
2013-02-08 09:42:00,45.6,32.0,30.09,NNE,17,2.0,3.0,60,0.00,,,0.00,weatherlink.com 1.10,2013-02-08 15:42:00,
2013-02-08 09:57:00,46.9,33.0,30.09,NNE,17,0.0,3.0,58,0.00,,,0.00,weatherlink.com 1.10,2013-02-08 15:57:00,
2013-02-08 10:12:00,48.6,32.0,30.08,NNE,17,3.0,5.0,54,0.00,,,0.00,weatherlink.com 1.10,2013-02-08 16:12:00,
2013-02-08 10:27:00,50.7,33.0,30.08,NNE,17,0.0,4.0,51,0.00,,,0.00,weatherlink.com 1.10,2013-02-08 16:27:00,
2013-02-08 10:42:00,53.0,33.0,30.08,NNE,17,0.0,3.0,47,0.00,,,0.00,weatherlink.com 1.10,2013-02-08 16:42:00,
2013-02-08 10:58:00,54.8,32.0,30.08,NNE,17,0.0,6.0,43,0.00,,,0.00,weatherlink.com 1.10,2013-02-08 16:58:00,
2013-02-08 11:13:00,55.6,33.0,30.09,NNE,17,1.0,5.0,42,0.00,,,0.00,weatherlink.com 1.10,2013-02-08 17:13:00,
2013-02-08 11:28:00,57.9,31.0,30.07,ESE,113,3.0,14.0,36,0.00,,,0.00,weatherlink.com 1.10,2013-02-08 17:28:00,
2013-02-08 11:43:00,58.9,30.0,30.07,ESE,111,10.0,16.0,33,0.00,,,0.00,weatherlink.com 1.10,2013-02-08 17:43:00,
2013-02-08 11:58:00,60.1,30.0,30.07,ESE,113,11.0,17.0,32,0.00,,,0.00,weatherlink.com 1.10,2013-02-08 17:58:00,
2013-02-08 12:13:00,59.9,29.0,30.06,SE,144,6.0,18.0,31,0.00,,,0.00,weatherlink.com 1.10,2013-02-08 18:13:00,
2013-02-08 12:43:00,59.4,31.0,30.04,ESE,113,9.0,20.0,34,0.00,,,0.00,weatherlink.com 1.10,2013-02-08 18:43:00,
2013-02-08 12:58:00,60.4,31.0,30.03,SSE,160,5.0,17.0,33,0.00,,,0.00,weatherlink.com 1.10,2013-02-08 18:58:00,
2013-02-08 13:28:00,61.3,31.0,30.00,East,98,8.0,17.0,32,0.00,,,0.00,weatherlink.com 1.10,2013-02-08 19:28:00,
2013-02-08 13:44:00,62.1,31.0,29.98,East,84,14.0,14.0,31,0.00,,,0.00,weatherlink.com 1.10,2013-02-08 19:44:00,
2013-02-08 13:59:00,62.6,31.0,29.97,ESE,108,10.0,16.0,30,0.00,,,0.00,weatherlink.com 1.10,2013-02-08 19:59:00,
2013-02-08 14:13:00,61.7,31.0,29.96,ESE,103,12.0,18.0,32,0.00,,,0.00,weatherlink.com 1.10,2013-02-08 20:13:00,
2013-02-08 14:28:00,62.5,32.0,29.95,ESE,107,13.0,21.0,32,0.00,,,0.00,weatherlink.com 1.10,2013-02-08 20:28:00,
2013-02-08 14:43:00,62.4,32.0,29.94,ESE,105,13.0,18.0,32,0.00,,,0.00,weatherlink.com 1.10,2013-02-08 20:43:00,
2013-02-08 14:58:00,63.5,32.0,29.93,ESE,106,13.0,17.0,31,0.00,,,0.00,weatherlink.com 1.10,2013-02-08 20:58:00,
2013-02-08 15:13:00,62.5,32.0,29.93,SE,136,12.0,18.0,32,0.00,,,0.00,weatherlink.com 1.10,2013-02-08 21:13:00,
2013-02-08 15:28:00,62.8,32.0,29.92,NE,45,9.0,18.0,32,0.00,,,0.00,weatherlink.com 1.10,2013-02-08 21:28:00,
2013-02-08 15:43:00,63.1,33.0,29.91,ESE,109,11.0,17.0,32,0.00,,,0.00,weatherlink.com 1.10,2013-02-08 21:43:00,
2013-02-08 15:59:00,62.2,33.0,29.90,ESE,111,8.0,19.0,33,0.00,,,0.00,weatherlink.com 1.10,2013-02-08 21:59:00,
2013-02-08 16:13:00,61.4,33.0,29.90,East,92,9.0,18.0,34,0.00,,,0.00,weatherlink.com 1.10,2013-02-08 22:13:00,
2013-02-08 16:29:00,60.8,33.0,29.89,ENE,78,14.0,24.0,35,0.00,,,0.00,weatherlink.com 1.10,2013-02-08 22:29:00,
2013-02-08 16:43:00,60.1,33.0,29.90,SE,130,8.0,18.0,36,0.00,,,0.00,weatherlink.com 1.10,2013-02-08 22:43:00,
2013-02-08 16:59:00,59.0,33.0,29.90,ESE,114,9.0,18.0,38,0.00,,,0.00,weatherlink.com 1.10,2013-02-08 22:59:00,
2013-02-08 17:13:00,58.4,33.0,29.90,SE,136,9.0,15.0,39,0.00,,,0.00,weatherlink.com 1.10,2013-02-08 23:13:00,
2013-02-08 17:29:00,57.7,33.0,29.90,ESE,122,5.0,16.0,40,0.00,,,0.00,weatherlink.com 1.10,2013-02-08 23:29:00,
2013-02-08 17:44:00,57.1,33.0,29.90,ESE,115,11.0,18.0,41,0.00,,,0.00,weatherlink.com 1.10,2013-02-08 23:44:00,
2013-02-08 17:59:00,56.4,33.0,29.90,ESE,108,5.0,16.0,42,0.00,,,0.00,weatherlink.com 1.10,2013-02-08 23:59:00,
2013-02-08 18:29:00,55.5,33.0,29.90,SE,126,5.0,13.0,43,0.00,,,0.00,weatherlink.com 1.10,2013-02-09 00:29:00,
2013-02-08 18:44:00,55.0,33.0,29.89,SE,138,4.0,9.0,43,0.00,,,0.00,weatherlink.com 1.10,2013-02-09 00:44:00,
2013-02-08 18:59:00,54.8,32.0,29.88,SE,128,5.0,10.0,43,0.00,,,0.00,weatherlink.com 1.10,2013-02-09 00:59:00,
2013-02-08 19:14:00,54.4,32.0,29.88,SE,126,7.0,12.0,43,0.00,,,0.00,weatherlink.com 1.10,2013-02-09 01:14:00,
2013-02-08 19:29:00,54.1,32.0,29.88,SE,133,6.0,9.0,44,0.00,,,0.00,weatherlink.com 1.10,2013-02-09 01:29:00,
2013-02-08 19:44:00,53.7,32.0,29.89,SE,134,4.0,8.0,44,0.00,,,0.00,weatherlink.com 1.10,2013-02-09 01:44:00,
2013-02-08 19:59:00,52.9,32.0,29.89,SE,134,5.0,5.0,45,0.00,,,0.00,weatherlink.com 1.10,2013-02-09 01:59:00,
2013-02-08 20:14:00,52.4,32.0,29.89,SE,128,4.0,8.0,47,0.00,,,0.00,weatherlink.com 1.10,2013-02-09 02:14:00,
2013-02-08 20:29:00,51.9,33.0,29.88,SE,126,5.0,8.0,48,0.00,,,0.00,weatherlink.com 1.10,2013-02-09 02:29:00,
2013-02-08 20:44:00,51.7,33.0,29.88,ESE,111,5.0,12.0,49,0.00,,,0.00,weatherlink.com 1.10,2013-02-09 02:44:00,
2013-02-08 20:59:00,51.8,33.0,29.87,ESE,111,0.0,9.0,49,0.00,,,0.00,weatherlink.com 1.10,2013-02-09 02:59:00,
2013-02-08 21:14:00,51.2,33.0,29.87,ESE,111,3.0,4.0,51,0.00,,,0.00,weatherlink.com 1.10,2013-02-09 03:14:00,
2013-02-08 21:29:00,51.4,34.0,29.88,SSE,153,1.0,6.0,52,0.00,,,0.00,weatherlink.com 1.10,2013-02-09 03:29:00,
2013-02-08 21:44:00,51.4,34.0,29.89,West,259,4.0,11.0,52,0.00,,,0.00,weatherlink.com 1.10,2013-02-09 03:44:00,
2013-02-08 21:59:00,51.5,34.0,29.89,SW,230,2.0,7.0,52,0.00,,,0.00,weatherlink.com 1.10,2013-02-09 03:59:00,
2013-02-08 22:14:00,51.5,35.0,29.89,SSW,200,3.0,8.0,53,0.00,,,0.00,weatherlink.com 1.10,2013-02-09 04:14:00,
2013-02-08 22:29:00,51.8,34.0,29.89,South,180,1.0,8.0,52,0.00,,,0.00,weatherlink.com 1.10,2013-02-09 04:29:00,
2013-02-08 22:44:00,51.5,35.0,29.89,South,178,2.0,5.0,53,0.00,,,0.00,weatherlink.com 1.10,2013-02-09 04:44:00,
2013-02-08 22:59:00,51.7,35.0,29.89,SSE,163,5.0,9.0,53,0.00,,,0.00,weatherlink.com 1.10,2013-02-09 04:59:00,
2013-02-08 23:14:00,52.1,35.0,29.89,SE,138,2.0,9.0,53,0.00,,,0.00,weatherlink.com 1.10,2013-02-09 05:14:00,
2013-02-08 23:29:00,51.9,36.0,29.88,SE,136,4.0,10.0,54,0.00,,,0.00,weatherlink.com 1.10,2013-02-09 05:29:00,
2013-02-08 23:44:00,51.7,35.0,29.89,SE,136,2.0,8.0,54,0.00,,,0.00,weatherlink.com 1.10,2013-02-09 05:44:00,
2013-02-08 23:59:00,51.0,35.0,29.89,SE,136,0.0,1.0,54,0.00,,,0.00,weatherlink.com 1.10,2013-02-09 05:59:00,